createdAt,value
2017-12-22T00:02:02.806Z,90.00
2017-12-22T00:04:31.133Z,90.10
2017-12-22T00:06:59.489Z,90.30
2017-12-22T00:09:27.828Z,90.20
2017-12-22T00:11:56.262Z,90.40
2017-12-22T00:14:24.637Z,90.20
2017-12-22T00:16:52.976Z,90.80
2017-12-22T00:19:22.077Z,90.50
2017-12-22T00:21:51.192Z,90.60
2017-12-22T00:24:19.652Z,90.60
2017-12-22T00:26:48.421Z,90.80
2017-12-22T00:29:16.836Z,90.80
2017-12-22T00:31:44.850Z,90.80
2017-12-22T00:34:13.956Z,91.10
2017-12-22T00:36:42.296Z,91.20
2017-12-22T00:39:10.645Z,90.90
2017-12-22T00:41:38.657Z,90.60
2017-12-22T00:44:07.009Z,90.60
2017-12-22T00:46:35.556Z,90.50
2017-12-22T00:49:04.663Z,90.90
2017-12-22T00:51:33.018Z,90.80
2017-12-22T00:54:02.156Z,90.60
2017-12-22T00:56:30.495Z,90.60
2017-12-22T00:58:59.595Z,90.30
2017-12-22T01:01:28.682Z,90.30
2017-12-22T01:03:57.824Z,90.40
2017-12-22T01:06:26.351Z,90.40
2017-12-22T01:08:54.733Z,91.20
2017-12-22T01:11:23.836Z,90.50
2017-12-22T01:13:52.941Z,90.50
2017-12-22T01:16:26.728Z,90.50
2017-12-22T01:19:01.569Z,90.50
2017-12-22T01:21:30.794Z,91.20
2017-12-22T01:23:59.159Z,91.20
2017-12-22T01:26:27.478Z,91.20
2017-12-22T01:28:55.864Z,90.50
2017-12-22T01:31:24.196Z,90.30
2017-12-22T01:33:52.592Z,90.40
2017-12-22T01:36:20.590Z,90.40
2017-12-22T01:38:48.983Z,90.70
2017-12-22T01:41:18.118Z,90.70
2017-12-22T01:43:46.484Z,90.70
2017-12-22T01:46:14.829Z,90.20
2017-12-22T01:48:43.259Z,90.10
2017-12-22T01:51:11.604Z,90.20
2017-12-22T01:53:39.991Z,90.30
2017-12-22T01:56:08.324Z,90.50
2017-12-22T01:58:36.672Z,90.40
2017-12-22T02:01:05.040Z,90.20
2017-12-22T02:03:33.410Z,90.60
2017-12-22T02:06:01.752Z,90.50
2017-12-22T02:08:30.889Z,90.10
2017-12-22T02:10:59.239Z,90.10
2017-12-22T02:13:27.567Z,90.40
2017-12-22T02:15:55.919Z,90.60
2017-12-22T02:18:24.260Z,90.40
2017-12-22T02:20:53.400Z,91.60
2017-12-22T02:23:21.742Z,91.60
2017-12-22T02:25:50.086Z,91.10
2017-12-22T02:28:18.437Z,91.70
2017-12-22T02:30:47.004Z,91.00
2017-12-22T02:33:15.331Z,90.60
2017-12-22T02:35:44.455Z,91.10
2017-12-22T02:38:12.813Z,91.10
2017-12-22T02:40:41.931Z,90.40
2017-12-22T02:43:10.279Z,90.40
2017-12-22T02:45:39.390Z,91.60
2017-12-22T02:48:07.725Z,91.60
2017-12-22T02:50:36.102Z,90.90
2017-12-22T02:53:04.443Z,90.70
2017-12-22T02:55:32.798Z,90.70
2017-12-22T02:58:01.154Z,90.80
2017-12-22T03:00:30.264Z,91.00
2017-12-22T03:02:59.380Z,90.90
2017-12-22T03:05:27.717Z,90.90
2017-12-22T03:07:56.099Z,90.70
2017-12-22T03:10:25.191Z,90.80
2017-12-22T03:12:54.309Z,91.10
2017-12-22T03:15:22.674Z,91.10
2017-12-22T03:17:51.784Z,90.60
2017-12-22T03:20:20.130Z,90.60
2017-12-22T03:22:48.545Z,90.60
2017-12-22T03:25:17.100Z,91.40
2017-12-22T03:27:46.204Z,90.80
2017-12-22T03:30:14.540Z,90.80
2017-12-22T03:32:42.896Z,90.50
2017-12-22T03:35:11.236Z,90.30
2017-12-22T03:37:40.344Z,90.20
2017-12-22T03:40:08.675Z,90.20
2017-12-22T03:42:37.049Z,90.40
2017-12-22T03:45:05.376Z,90.20
2017-12-22T03:47:33.777Z,90.10
2017-12-22T03:50:02.138Z,90.10
2017-12-22T03:52:31.548Z,90.30
2017-12-22T03:54:59.897Z,90.10
2017-12-22T03:57:28.305Z,90.30
2017-12-22T03:59:56.643Z,90.40
2017-12-22T04:02:25.770Z,90.90
2017-12-22T04:04:54.110Z,90.60
2017-12-22T04:07:23.244Z,90.90
2017-12-22T04:09:51.605Z,90.80
2017-12-22T04:12:19.954Z,90.80
2017-12-22T04:14:48.482Z,90.30
2017-12-22T04:17:17.102Z,90.60
2017-12-22T04:19:45.431Z,90.30
2017-12-22T04:22:14.794Z,90.50
2017-12-22T04:24:43.137Z,90.50
2017-12-22T04:27:11.506Z,91.40
2017-12-22T04:29:39.850Z,91.70
2017-12-22T04:32:09.225Z,91.20
2017-12-22T04:34:37.585Z,90.90
2017-12-22T04:37:05.929Z,90.70
2017-12-22T04:39:34.280Z,90.40
2017-12-22T04:42:04.431Z,90.70
2017-12-22T04:44:32.784Z,90.70
2017-12-22T04:47:01.132Z,91.40
2017-12-22T04:49:30.246Z,90.80
2017-12-22T04:51:59.661Z,91.00
2017-12-22T04:54:28.008Z,91.30
2017-12-22T04:56:57.116Z,91.30
2017-12-22T04:59:26.236Z,90.90
2017-12-22T05:01:54.583Z,90.90
2017-12-22T05:04:22.945Z,91.10
2017-12-22T05:06:51.347Z,90.70
2017-12-22T05:09:20.660Z,90.60
2017-12-22T05:11:49.259Z,90.60
2017-12-22T05:14:17.943Z,90.80
2017-12-22T05:16:46.500Z,91.30
2017-12-22T05:19:15.583Z,91.00
2017-12-22T05:21:44.805Z,90.70
2017-12-22T05:24:13.147Z,90.70
2017-12-22T05:26:42.249Z,91.40
2017-12-22T05:29:11.371Z,90.50
2017-12-22T05:31:39.742Z,90.50
2017-12-22T05:34:08.312Z,90.40
2017-12-22T05:36:36.816Z,90.40
2017-12-22T05:39:04.495Z,90.20
2017-12-22T05:41:32.838Z,90.70
2017-12-22T05:44:01.206Z,90.70
2017-12-22T05:46:30.313Z,90.60
2017-12-22T05:48:58.648Z,90.60
2017-12-22T05:51:27.011Z,90.50
2017-12-22T05:53:56.125Z,90.80
2017-12-22T05:56:24.516Z,90.90
2017-12-22T05:58:53.134Z,90.90
2017-12-22T06:01:21.505Z,90.90
2017-12-22T06:03:50.411Z,90.60
2017-12-22T06:06:19.269Z,91.00
2017-12-22T06:08:49.331Z,91.00
2017-12-22T06:11:18.659Z,91.00
2017-12-22T06:13:47.188Z,90.60
2017-12-22T06:19:47.330Z,90.60
2017-12-22T06:22:16.723Z,92.10
2017-12-22T06:24:45.265Z,91.20
2017-12-22T06:27:13.601Z,91.50
2017-12-22T06:29:41.968Z,90.70
2017-12-22T06:32:10.311Z,90.90
2017-12-22T06:34:39.457Z,90.50
2017-12-22T06:37:08.745Z,91.40
2017-12-22T06:39:37.080Z,91.40
2017-12-22T06:42:07.190Z,91.50
2017-12-22T06:44:36.319Z,91.00
2017-12-22T06:47:04.695Z,91.00
2017-12-22T06:49:33.045Z,90.70
2017-12-22T06:52:03.070Z,91.70
2017-12-22T06:54:32.209Z,91.40
2017-12-22T06:57:00.549Z,91.40
2017-12-22T06:59:28.870Z,91.40
2017-12-22T07:01:57.225Z,91.30
2017-12-22T07:04:25.571Z,91.80
2017-12-22T07:06:54.705Z,91.20
2017-12-22T07:09:23.032Z,91.20
2017-12-22T07:11:52.131Z,90.70
2017-12-22T07:14:21.251Z,90.30
2017-12-22T07:16:50.552Z,90.30
2017-12-22T07:19:19.656Z,90.50
2017-12-22T07:21:48.628Z,90.50
2017-12-22T07:24:17.358Z,90.50
2017-12-22T07:26:45.679Z,90.50
2017-12-22T07:29:14.812Z,90.40
2017-12-22T07:31:43.235Z,90.30
2017-12-22T07:34:11.579Z,90.50
2017-12-22T07:36:39.936Z,90.60
2017-12-22T07:39:08.276Z,90.40
2017-12-22T07:41:37.381Z,90.50
2017-12-22T07:44:06.674Z,91.30
2017-12-22T07:46:35.784Z,90.90
2017-12-22T07:49:04.771Z,90.80
2017-12-22T07:51:33.559Z,91.80
2017-12-22T07:54:02.658Z,91.00
2017-12-22T07:56:31.014Z,91.00
2017-12-22T07:59:00.123Z,91.70
2017-12-22T08:01:29.216Z,90.90
2017-12-22T08:03:58.339Z,90.90
2017-12-22T08:06:26.670Z,90.90
2017-12-22T08:08:55.038Z,91.40
2017-12-22T08:11:23.368Z,91.00
2017-12-22T08:13:51.708Z,90.50
2017-12-22T08:16:20.844Z,91.70
2017-12-22T08:18:49.586Z,91.40
2017-12-22T08:21:18.692Z,92.30
2017-12-22T08:23:48.568Z,91.60
2017-12-22T08:26:17.298Z,91.60
2017-12-22T08:28:46.398Z,91.90
2017-12-22T08:31:14.909Z,91.90
2017-12-22T08:33:43.250Z,91.50
2017-12-22T08:36:12.355Z,91.10
2017-12-22T08:38:40.705Z,91.10
2017-12-22T08:41:09.824Z,90.60
2017-12-22T08:43:38.151Z,90.60
2017-12-22T08:46:06.508Z,90.60
2017-12-22T08:48:34.844Z,90.50
2017-12-22T08:51:03.967Z,90.50
2017-12-22T08:53:32.300Z,90.50
2017-12-22T08:56:01.414Z,91.00
2017-12-22T08:58:29.766Z,91.00
2017-12-22T09:00:58.168Z,90.90
2017-12-22T09:03:26.511Z,91.50
2017-12-22T09:05:54.853Z,90.90
2017-12-22T09:08:23.205Z,91.00
2017-12-22T09:10:51.549Z,90.60
2017-12-22T09:13:20.262Z,90.60
2017-12-22T09:15:48.654Z,90.60
2017-12-22T09:18:17.422Z,92.20
2017-12-22T09:20:45.788Z,92.40
2017-12-22T09:23:14.894Z,92.60
2017-12-22T09:25:43.996Z,92.40
2017-12-22T09:28:12.349Z,92.40
2017-12-22T09:30:41.443Z,92.70
2017-12-22T09:33:09.785Z,92.60
2017-12-22T09:35:38.148Z,92.30
2017-12-22T09:38:06.471Z,92.30
2017-12-22T09:40:35.614Z,92.40
2017-12-22T09:43:04.150Z,92.00
2017-12-22T09:45:32.326Z,92.10
2017-12-22T09:48:00.673Z,91.50
2017-12-22T09:50:29.011Z,91.60
2017-12-22T09:52:57.350Z,92.10
2017-12-22T09:55:25.729Z,91.70
2017-12-22T09:57:54.062Z,91.50
2017-12-22T10:00:22.392Z,91.10
2017-12-22T10:02:51.342Z,91.00
2017-12-22T10:05:20.453Z,91.00
2017-12-22T10:07:48.776Z,90.90
2017-12-22T10:10:17.374Z,90.80
2017-12-22T10:12:45.717Z,91.10
2017-12-22T10:15:14.842Z,90.80
2017-12-22T10:17:43.191Z,90.80
2017-12-22T10:20:12.297Z,90.80
2017-12-22T10:22:41.387Z,91.30
2017-12-22T10:25:10.500Z,91.60
2017-12-22T10:27:38.835Z,91.60
2017-12-22T10:30:07.197Z,91.00
2017-12-22T10:32:35.543Z,91.80
2017-12-22T10:35:03.869Z,91.70
2017-12-22T10:37:32.217Z,91.30
2017-12-22T10:40:00.577Z,90.80
2017-12-22T10:42:28.901Z,90.80
2017-12-22T10:44:57.384Z,91.00
2017-12-22T10:47:25.726Z,90.70
2017-12-22T10:49:54.065Z,91.20
2017-12-22T10:52:22.420Z,91.30
2017-12-22T10:54:51.191Z,91.10
2017-12-22T10:57:19.533Z,91.00
2017-12-22T10:59:48.121Z,90.90
2017-12-22T11:02:16.460Z,91.00
2017-12-22T11:04:45.565Z,91.00
2017-12-22T11:07:13.936Z,91.00
2017-12-22T11:09:43.063Z,91.10
2017-12-22T11:12:11.582Z,91.00
2017-12-22T11:14:39.938Z,91.00
2017-12-22T11:17:08.279Z,91.20
2017-12-22T11:19:36.613Z,91.10
2017-12-22T11:22:04.977Z,91.10
2017-12-22T11:24:33.119Z,91.10
2017-12-22T11:27:01.452Z,90.90
2017-12-22T11:29:29.801Z,91.70
2017-12-22T11:31:58.136Z,91.00
2017-12-22T11:34:26.475Z,91.20
2017-12-22T11:36:54.808Z,91.10
2017-12-22T11:39:23.145Z,91.00
2017-12-22T11:41:52.283Z,91.80
2017-12-22T11:44:20.621Z,91.70
2017-12-22T11:46:50.625Z,91.40
2017-12-22T11:49:19.836Z,91.40
2017-12-22T11:51:49.628Z,91.00
2017-12-22T11:54:18.029Z,91.00
2017-12-22T11:56:47.562Z,91.00
2017-12-22T11:59:15.896Z,91.00
2017-12-22T12:01:44.248Z,91.80
2017-12-22T12:04:12.600Z,91.30
2017-12-22T12:06:40.966Z,91.70
2017-12-22T12:09:09.307Z,91.20
2017-12-22T12:11:37.645Z,91.30
2017-12-22T12:14:05.986Z,91.60
2017-12-22T12:16:34.354Z,91.10
2017-12-22T12:19:03.901Z,91.10
2017-12-22T12:21:32.235Z,91.10
2017-12-22T12:24:01.417Z,91.60
2017-12-22T12:26:29.749Z,91.50
2017-12-22T12:28:58.191Z,92.00
2017-12-22T12:31:27.297Z,91.10
2017-12-22T12:33:55.736Z,91.10
2017-12-22T12:36:24.078Z,91.30
2017-12-22T12:38:52.465Z,91.10
2017-12-22T12:41:20.800Z,91.00
2017-12-22T12:43:50.236Z,91.40
2017-12-22T12:46:19.081Z,91.40
2017-12-22T12:48:48.675Z,91.90
2017-12-22T12:51:17.430Z,91.90
2017-12-22T12:53:45.901Z,91.20
2017-12-22T12:56:14.231Z,91.10
2017-12-22T12:58:43.408Z,90.90
2017-12-22T13:01:11.748Z,90.80
2017-12-22T13:03:40.095Z,90.90
2017-12-22T13:06:09.215Z,91.00
2017-12-22T13:08:37.628Z,91.00
2017-12-22T13:11:05.968Z,91.30
2017-12-22T13:13:34.332Z,91.30
2017-12-22T13:16:02.678Z,91.30
2017-12-22T13:18:31.042Z,91.20
2017-12-22T13:20:59.393Z,90.90
2017-12-22T13:23:27.830Z,91.00
2017-12-22T13:25:56.961Z,91.10
2017-12-22T13:28:25.353Z,91.10
2017-12-22T13:30:53.688Z,91.40
2017-12-22T13:33:22.139Z,91.00
2017-12-22T13:35:50.513Z,91.80
2017-12-22T13:38:18.903Z,91.80
2017-12-22T13:40:47.499Z,91.70
2017-12-22T13:43:16.659Z,91.90
2017-12-22T13:45:45.005Z,91.90
2017-12-22T13:48:13.379Z,92.00
2017-12-22T13:50:41.728Z,91.70
2017-12-22T13:53:10.813Z,91.50
2017-12-22T13:55:39.951Z,91.20
2017-12-22T13:58:08.335Z,91.20
2017-12-22T14:00:36.347Z,91.00
2017-12-22T14:03:04.684Z,91.30
2017-12-22T14:05:33.017Z,91.00
2017-12-22T14:08:02.144Z,91.10
2017-12-22T14:10:30.478Z,91.10
2017-12-22T14:12:58.836Z,91.20
2017-12-22T14:15:27.386Z,91.60
2017-12-22T14:17:55.798Z,91.10
2017-12-22T14:20:24.136Z,90.90
2017-12-22T14:22:52.493Z,91.10
2017-12-22T14:25:21.601Z,91.90
2017-12-22T14:27:50.368Z,91.90
2017-12-22T14:30:19.879Z,91.30
2017-12-22T14:32:49.612Z,91.70
2017-12-22T14:35:18.193Z,91.70
2017-12-22T14:37:46.620Z,92.30
2017-12-22T14:40:14.970Z,91.70
2017-12-22T14:42:43.337Z,92.20
2017-12-22T14:45:11.673Z,92.40
2017-12-22T14:47:40.889Z,92.00
2017-12-22T14:50:09.224Z,92.00
2017-12-22T14:52:38.532Z,91.60
2017-12-22T14:55:06.889Z,91.40
2017-12-22T14:57:35.302Z,91.30
2017-12-22T15:00:03.748Z,91.30
2017-12-22T15:02:31.827Z,91.30
2017-12-22T15:05:00.170Z,91.60
2017-12-22T15:07:28.536Z,91.30
2017-12-22T15:09:56.898Z,90.90
2017-12-22T15:12:25.678Z,90.80
2017-12-22T15:14:54.804Z,91.70
2017-12-22T15:17:23.156Z,91.60
2017-12-22T15:19:52.361Z,91.70
2017-12-22T15:22:21.498Z,92.10
2017-12-22T15:24:50.270Z,92.10
2017-12-22T15:27:18.866Z,91.90
2017-12-22T15:29:47.428Z,91.40
2017-12-22T15:32:15.752Z,91.90
2017-12-22T15:34:44.096Z,91.40
2017-12-22T15:37:12.497Z,91.90
2017-12-22T15:39:40.861Z,92.00
2017-12-22T15:42:09.081Z,91.70
2017-12-22T15:44:38.199Z,91.70
2017-12-22T15:47:06.524Z,91.70
2017-12-22T15:49:34.880Z,91.50
2017-12-22T15:52:03.236Z,91.40
2017-12-22T15:54:31.574Z,91.30
2017-12-22T15:56:59.916Z,91.30
2017-12-22T15:59:28.310Z,92.00
2017-12-22T16:01:56.678Z,91.30
2017-12-22T16:04:25.138Z,91.90
2017-12-22T16:06:53.469Z,92.10
2017-12-22T16:09:22.749Z,91.50
2017-12-22T16:11:51.088Z,91.50
2017-12-22T16:14:19.571Z,91.50
2017-12-22T16:16:48.448Z,91.60
2017-12-22T16:19:16.796Z,91.70
2017-12-22T16:21:45.906Z,92.10
2017-12-22T16:24:15.101Z,91.50
2017-12-22T16:26:44.188Z,91.20
2017-12-22T16:29:13.379Z,91.20
2017-12-22T16:31:42.497Z,92.00
2017-12-22T16:34:11.606Z,92.00
2017-12-22T16:36:39.944Z,92.00
2017-12-22T16:39:09.104Z,91.80
2017-12-22T16:41:37.448Z,91.80
2017-12-22T16:44:05.835Z,92.10
2017-12-22T16:46:34.181Z,91.80
2017-12-22T16:49:03.315Z,92.20
2017-12-22T16:51:31.644Z,92.20
2017-12-22T16:54:00.757Z,91.90
2017-12-22T16:56:29.113Z,91.90
2017-12-22T16:58:58.302Z,92.40
2017-12-22T17:01:26.629Z,92.40
2017-12-22T17:03:55.069Z,92.20
2017-12-22T17:06:24.177Z,92.10
2017-12-22T17:08:53.351Z,92.00
2017-12-22T17:11:21.703Z,92.00
2017-12-22T17:13:50.986Z,92.00
2017-12-22T17:16:20.149Z,92.00
2017-12-22T17:18:48.547Z,91.70
2017-12-22T17:21:16.920Z,91.50
2017-12-22T17:23:45.385Z,91.60
2017-12-22T17:26:14.484Z,91.70
2017-12-22T17:28:42.901Z,91.70
2017-12-22T17:31:11.254Z,91.60
2017-12-22T17:33:39.745Z,91.40
2017-12-22T17:36:08.107Z,91.30
2017-12-22T17:38:36.563Z,91.60
2017-12-22T17:41:05.667Z,91.90
2017-12-22T17:43:34.879Z,91.40
2017-12-22T17:46:03.234Z,91.40
2017-12-22T17:48:32.406Z,92.00
2017-12-22T17:51:00.759Z,92.00
2017-12-22T17:53:29.894Z,91.60
2017-12-22T17:55:58.223Z,91.60
2017-12-22T17:58:26.633Z,91.20
2017-12-22T18:00:55.039Z,91.10
2017-12-22T18:03:24.202Z,91.10
2017-12-22T18:05:51.889Z,91.10
2017-12-22T18:08:20.365Z,91.30
2017-12-22T18:10:48.391Z,91.30
2017-12-22T18:13:16.412Z,92.60
2017-12-22T18:15:45.524Z,91.70
2017-12-22T18:18:13.859Z,91.70
2017-12-22T18:20:41.571Z,91.40
2017-12-22T18:23:09.923Z,91.90
2017-12-22T18:25:39.023Z,91.80
2017-12-22T18:28:08.197Z,91.40
2017-12-22T18:30:36.550Z,91.40
2017-12-22T18:33:04.899Z,91.30
2017-12-22T18:35:33.259Z,91.50
2017-12-22T18:38:02.355Z,91.70
2017-12-22T18:40:30.513Z,91.70
2017-12-22T18:42:59.640Z,91.40
2017-12-22T18:45:27.976Z,91.40
2017-12-22T18:47:56.348Z,91.50
2017-12-22T18:50:24.690Z,91.50
2017-12-22T18:52:53.035Z,91.20
2017-12-22T18:55:21.393Z,91.20
2017-12-22T18:57:50.579Z,92.10
2017-12-22T19:00:19.264Z,91.90
2017-12-22T19:02:47.689Z,92.20
2017-12-22T19:05:16.034Z,92.30
2017-12-22T19:07:45.288Z,91.80
2017-12-22T19:10:13.636Z,91.80
2017-12-22T19:12:42.070Z,92.10
2017-12-22T19:15:10.228Z,92.00
2017-12-22T19:17:38.597Z,92.10
2017-12-22T19:20:06.950Z,91.60
2017-12-22T19:22:35.332Z,91.20
2017-12-22T19:25:03.351Z,92.30
2017-12-22T19:27:31.775Z,91.60
2017-12-22T19:30:00.112Z,91.30
2017-12-22T19:32:28.555Z,91.70
2017-12-22T19:34:56.888Z,91.60
2017-12-22T19:37:25.257Z,92.50
2017-12-22T19:39:54.366Z,92.90
2017-12-22T19:42:23.575Z,92.20
2017-12-22T19:44:51.925Z,92.20
2017-12-22T19:47:21.030Z,91.50
2017-12-22T19:49:51.160Z,91.90
2017-12-22T19:52:20.264Z,91.90
2017-12-22T19:54:48.594Z,92.00
2017-12-22T19:57:16.991Z,91.80
2017-12-22T19:59:46.097Z,92.70
2017-12-22T20:02:14.468Z,92.70
2017-12-22T20:04:43.685Z,92.00
2017-12-22T20:07:12.026Z,92.00
2017-12-22T20:09:40.398Z,91.60
2017-12-22T20:12:08.730Z,92.30
2017-12-22T20:14:37.066Z,92.90
2017-12-22T20:17:06.221Z,93.20
2017-12-22T20:19:34.623Z,93.20
2017-12-22T20:22:02.782Z,92.80
2017-12-22T20:24:31.183Z,92.40
2017-12-22T20:26:59.517Z,93.00
2017-12-22T20:29:27.898Z,93.40
2017-12-22T20:31:56.269Z,93.10
2017-12-22T20:34:24.774Z,92.80
2017-12-22T20:36:53.121Z,92.40
2017-12-22T20:39:21.586Z,92.10
2017-12-22T20:41:51.014Z,92.00
2017-12-22T20:44:20.202Z,92.20
2017-12-22T20:46:49.032Z,92.50
2017-12-22T20:49:17.740Z,91.80
2017-12-22T20:51:46.844Z,91.70
2017-12-22T20:54:16.001Z,92.20
2017-12-22T20:56:44.059Z,92.20
2017-12-22T20:59:14.028Z,92.00
2017-12-22T21:01:42.372Z,92.10
2017-12-22T21:04:10.757Z,92.20
2017-12-22T21:06:39.114Z,91.70
2017-12-22T21:09:07.507Z,91.80
2017-12-22T21:11:36.011Z,91.60
2017-12-22T21:14:05.169Z,91.60
2017-12-22T21:16:33.516Z,91.60
2017-12-22T21:19:01.876Z,92.00
2017-12-22T21:21:30.213Z,92.70
2017-12-22T21:23:58.600Z,93.00
2017-12-22T21:26:26.948Z,93.10
2017-12-22T21:28:55.409Z,92.90
2017-12-22T21:31:23.781Z,93.40
2017-12-22T21:33:52.118Z,93.20
2017-12-22T21:36:21.221Z,92.50
2017-12-22T21:38:50.645Z,92.60
2017-12-22T21:41:19.165Z,92.50
2017-12-22T21:43:47.817Z,93.00
2017-12-22T21:46:16.156Z,92.30
2017-12-22T21:48:45.332Z,91.70
2017-12-22T21:51:13.663Z,91.60
2017-12-22T21:53:42.025Z,92.30
2017-12-22T21:56:11.136Z,92.30
2017-12-22T21:58:39.471Z,92.30
2017-12-22T22:01:07.821Z,92.00
2017-12-22T22:03:36.215Z,91.80
2017-12-22T22:06:04.548Z,91.70
2017-12-22T22:08:32.911Z,92.10
2017-12-22T22:11:01.255Z,92.10
2017-12-22T22:13:29.592Z,91.80
2017-12-22T22:15:57.958Z,91.60
2017-12-22T22:18:26.293Z,92.10
2017-12-22T22:20:54.739Z,92.80
2017-12-22T22:23:23.067Z,92.90
2017-12-22T22:25:52.177Z,92.10
2017-12-22T22:28:20.548Z,92.10
2017-12-22T22:30:48.902Z,91.90
2017-12-22T22:33:17.279Z,92.10
2017-12-22T22:35:45.623Z,92.10
2017-12-22T22:38:13.960Z,92.40
2017-12-22T22:40:42.326Z,92.30
2017-12-22T22:43:11.501Z,92.30
2017-12-22T22:45:40.370Z,92.30
2017-12-22T22:48:08.720Z,93.00
2017-12-22T22:50:37.063Z,93.20
2017-12-22T22:53:06.238Z,93.60
2017-12-22T22:55:34.576Z,93.60
2017-12-22T22:58:02.696Z,93.60
2017-12-22T23:00:31.041Z,92.80
2017-12-22T23:02:59.359Z,92.40
2017-12-22T23:05:28.486Z,91.80
2017-12-22T23:07:56.826Z,91.70
2017-12-22T23:10:25.937Z,91.60
2017-12-22T23:12:55.093Z,91.60
2017-12-22T23:15:23.445Z,91.60
2017-12-22T23:17:51.832Z,92.20
2017-12-22T23:20:21.086Z,92.30
2017-12-22T23:22:51.044Z,92.30
2017-12-22T23:25:19.962Z,92.30
2017-12-22T23:27:49.129Z,92.30
2017-12-22T23:30:17.897Z,92.10
2017-12-22T23:32:46.236Z,92.40
2017-12-22T23:35:15.336Z,92.00
2017-12-22T23:37:44.471Z,92.30
2017-12-22T23:40:12.813Z,92.30
2017-12-22T23:42:42.032Z,92.10
2017-12-22T23:45:10.401Z,92.00
2017-12-22T23:47:38.732Z,92.10
2017-12-22T23:50:07.077Z,92.00
2017-12-22T23:52:36.452Z,91.80
2017-12-22T23:55:04.780Z,91.90
2017-12-22T23:57:33.123Z,92.20
